sensor_id;sensor_type;location;lat;lon;timestamp;temperature;humidity
38325;DHT22;24126;52.672;13.622;2022-09-17T00:01:20;17.30;68.30
38325;DHT22;24126;52.672;13.622;2022-09-17T00:03:49;17.40;68.40
38325;DHT22;24126;52.672;13.622;2022-09-17T00:06:17;17.40;68.50
38325;DHT22;24126;52.672;13.622;2022-09-17T00:08:44;17.40;68.50
38325;DHT22;24126;52.672;13.622;2022-09-17T00:11:12;17.40;68.50
38325;DHT22;24126;52.672;13.622;2022-09-17T00:13:40;17.40;68.50
38325;DHT22;24126;52.672;13.622;2022-09-17T00:16:08;17.40;68.60
38325;DHT22;24126;52.672;13.622;2022-09-17T00:18:35;17.40;68.60
38325;DHT22;24126;52.672;13.622;2022-09-17T00:21:05;17.50;68.80
38325;DHT22;24126;52.672;13.622;2022-09-17T00:23:33;17.50;68.90
38325;DHT22;24126;52.672;13.622;2022-09-17T00:26:03;17.50;68.90
38325;DHT22;24126;52.672;13.622;2022-09-17T00:28:30;17.50;69.00
38325;DHT22;24126;52.672;13.622;2022-09-17T00:30:57;17.50;68.90
38325;DHT22;24126;52.672;13.622;2022-09-17T00:33:24;17.50;68.90
38325;DHT22;24126;52.672;13.622;2022-09-17T00:35:58;17.60;69.00
38325;DHT22;24126;52.672;13.622;2022-09-17T00:38:25;17.60;69.00
38325;DHT22;24126;52.672;13.622;2022-09-17T00:40:52;17.60;69.00
38325;DHT22;24126;52.672;13.622;2022-09-17T00:43:39;17.60;69.10
38325;DHT22;24126;52.672;13.622;2022-09-17T00:48:52;17.60;69.30
38325;DHT22;24126;52.672;13.622;2022-09-17T00:51:21;17.60;69.50
38325;DHT22;24126;52.672;13.622;2022-09-17T00:53:51;17.60;69.40
38325;DHT22;24126;52.672;13.622;2022-09-17T00:58:45;17.60;69.60
38325;DHT22;24126;52.672;13.622;2022-09-17T01:01:12;17.60;69.40
38325;DHT22;24126;52.672;13.622;2022-09-17T01:03:39;17.60;69.60
38325;DHT22;24126;52.672;13.622;2022-09-17T01:06:41;17.60;69.50
38325;DHT22;24126;52.672;13.622;2022-09-17T01:09:07;17.60;69.60
38325;DHT22;24126;52.672;13.622;2022-09-17T01:11:41;17.60;69.60
38325;DHT22;24126;52.672;13.622;2022-09-17T01:16:49;17.70;69.80
38325;DHT22;24126;52.672;13.622;2022-09-17T01:22:11;17.60;69.80
38325;DHT22;24126;52.672;13.622;2022-09-17T01:27:23;17.60;69.90
38325;DHT22;24126;52.672;13.622;2022-09-17T01:34:54;17.60;70.00
38325;DHT22;24126;52.672;13.622;2022-09-17T01:37:29;17.60;70.00
38325;DHT22;24126;52.672;13.622;2022-09-17T01:40:16;17.50;70.00
38325;DHT22;24126;52.672;13.622;2022-09-17T01:45:22;17.60;70.10
38325;DHT22;24126;52.672;13.622;2022-09-17T01:48:01;17.50;70.10
38325;DHT22;24126;52.672;13.622;2022-09-17T01:50:31;17.50;70.10
38325;DHT22;24126;52.672;13.622;2022-09-17T01:52:59;17.50;70.10
38325;DHT22;24126;52.672;13.622;2022-09-17T01:55:29;17.50;70.20
38325;DHT22;24126;52.672;13.622;2022-09-17T01:57:59;17.50;70.30
38325;DHT22;24126;52.672;13.622;2022-09-17T02:00:28;17.50;70.30
38325;DHT22;24126;52.672;13.622;2022-09-17T02:03:00;17.50;70.30
38325;DHT22;24126;52.672;13.622;2022-09-17T02:05:37;17.50;70.40
38325;DHT22;24126;52.672;13.622;2022-09-17T02:08:09;17.50;70.50
38325;DHT22;24126;52.672;13.622;2022-09-17T02:10:39;17.50;70.50
38325;DHT22;24126;52.672;13.622;2022-09-17T02:13:09;17.50;70.60
38325;DHT22;24126;52.672;13.622;2022-09-17T02:15:40;17.50;70.60
38325;DHT22;24126;52.672;13.622;2022-09-17T02:18:18;17.50;70.60
38325;DHT22;24126;52.672;13.622;2022-09-17T02:20:51;17.50;70.60
38325;DHT22;24126;52.672;13.622;2022-09-17T02:23:20;17.50;70.70
38325;DHT22;24126;52.672;13.622;2022-09-17T02:25:54;17.50;70.70
38325;DHT22;24126;52.672;13.622;2022-09-17T02:28:27;17.50;70.80
38325;DHT22;24126;52.672;13.622;2022-09-17T02:30:56;17.50;70.80
38325;DHT22;24126;52.672;13.622;2022-09-17T02:33:23;17.50;70.80
38325;DHT22;24126;52.672;13.622;2022-09-17T02:35:50;17.50;70.70
38325;DHT22;24126;52.672;13.622;2022-09-17T02:38:21;17.50;70.80
38325;DHT22;24126;52.672;13.622;2022-09-17T02:40:52;17.50;70.80
38325;DHT22;24126;52.672;13.622;2022-09-17T02:43:34;17.50;70.70
38325;DHT22;24126;52.672;13.622;2022-09-17T02:46:13;17.50;70.80
38325;DHT22;24126;52.672;13.622;2022-09-17T02:48:59;17.50;70.80
38325;DHT22;24126;52.672;13.622;2022-09-17T02:51:32;17.50;70.90
38325;DHT22;24126;52.672;13.622;2022-09-17T02:54:06;17.50;70.90
38325;DHT22;24126;52.672;13.622;2022-09-17T02:56:55;17.50;70.90
38325;DHT22;24126;52.672;13.622;2022-09-17T02:59:25;17.50;71.00
38325;DHT22;24126;52.672;13.622;2022-09-17T03:02:02;17.50;71.00
38325;DHT22;24126;52.672;13.622;2022-09-17T03:04:33;17.50;71.30
38325;DHT22;24126;52.672;13.622;2022-09-17T03:07:03;17.50;71.20
38325;DHT22;24126;52.672;13.622;2022-09-17T03:09:34;17.50;71.30
38325;DHT22;24126;52.672;13.622;2022-09-17T03:12:01;17.50;71.30
38325;DHT22;24126;52.672;13.622;2022-09-17T03:14:28;17.40;71.30
38325;DHT22;24126;52.672;13.622;2022-09-17T03:16:55;17.40;71.40
38325;DHT22;24126;52.672;13.622;2022-09-17T03:19:22;17.50;71.50
38325;DHT22;24126;52.672;13.622;2022-09-17T03:21:49;17.50;71.60
38325;DHT22;24126;52.672;13.622;2022-09-17T03:24:16;17.50;71.50
38325;DHT22;24126;52.672;13.622;2022-09-17T03:26:43;17.50;71.60
38325;DHT22;24126;52.672;13.622;2022-09-17T03:29:12;17.50;71.60
38325;DHT22;24126;52.672;13.622;2022-09-17T03:31:39;17.50;71.60
38325;DHT22;24126;52.672;13.622;2022-09-17T03:34:06;17.50;71.70
38325;DHT22;24126;52.672;13.622;2022-09-17T03:36:33;17.50;71.80
38325;DHT22;24126;52.672;13.622;2022-09-17T03:39:00;17.50;71.80
38325;DHT22;24126;52.672;13.622;2022-09-17T03:41:27;17.50;71.70
38325;DHT22;24126;52.672;13.622;2022-09-17T03:43:54;17.50;71.90
38325;DHT22;24126;52.672;13.622;2022-09-17T03:46:21;17.50;71.90
38325;DHT22;24126;52.672;13.622;2022-09-17T03:48:48;17.50;72.00
38325;DHT22;24126;52.672;13.622;2022-09-17T03:51:15;17.50;71.90
38325;DHT22;24126;52.672;13.622;2022-09-17T03:53:42;17.50;72.00
38325;DHT22;24126;52.672;13.622;2022-09-17T03:56:09;17.50;72.10
38325;DHT22;24126;52.672;13.622;2022-09-17T03:58:36;17.50;72.10
38325;DHT22;24126;52.672;13.622;2022-09-17T04:01:03;17.50;72.10
38325;DHT22;24126;52.672;13.622;2022-09-17T04:03:31;17.50;72.10
38325;DHT22;24126;52.672;13.622;2022-09-17T04:05:58;17.50;72.20
38325;DHT22;24126;52.672;13.622;2022-09-17T04:08:25;17.50;72.20
38325;DHT22;24126;52.672;13.622;2022-09-17T04:10:52;17.50;72.20
38325;DHT22;24126;52.672;13.622;2022-09-17T04:13:19;17.50;72.40
38325;DHT22;24126;52.672;13.622;2022-09-17T04:15:46;17.50;72.30
38325;DHT22;24126;52.672;13.622;2022-09-17T04:18:13;17.50;72.40
38325;DHT22;24126;52.672;13.622;2022-09-17T04:20:40;17.40;72.30
38325;DHT22;24126;52.672;13.622;2022-09-17T04:23:08;17.50;72.40
38325;DHT22;24126;52.672;13.622;2022-09-17T04:25:37;17.50;72.40
38325;DHT22;24126;52.672;13.622;2022-09-17T04:28:04;17.40;72.50
38325;DHT22;24126;52.672;13.622;2022-09-17T04:30:31;17.40;72.40
38325;DHT22;24126;52.672;13.622;2022-09-17T04:32:58;17.40;72.40
38325;DHT22;24126;52.672;13.622;2022-09-17T04:35:25;17.40;72.60
38325;DHT22;24126;52.672;13.622;2022-09-17T04:37:52;17.40;72.60
38325;DHT22;24126;52.672;13.622;2022-09-17T04:40:20;17.40;72.60
38325;DHT22;24126;52.672;13.622;2022-09-17T04:42:47;17.40;72.60
38325;DHT22;24126;52.672;13.622;2022-09-17T04:45:14;17.40;72.50
38325;DHT22;24126;52.672;13.622;2022-09-17T04:47:41;17.40;72.70
38325;DHT22;24126;52.672;13.622;2022-09-17T04:50:08;17.40;72.70
38325;DHT22;24126;52.672;13.622;2022-09-17T04:52:35;17.40;72.70
38325;DHT22;24126;52.672;13.622;2022-09-17T04:55:02;17.40;72.70
38325;DHT22;24126;52.672;13.622;2022-09-17T04:57:30;17.40;72.80
38325;DHT22;24126;52.672;13.622;2022-09-17T04:59:56;17.40;72.80
38325;DHT22;24126;52.672;13.622;2022-09-17T05:02:23;17.40;72.80
38325;DHT22;24126;52.672;13.622;2022-09-17T05:04:50;17.40;72.80
38325;DHT22;24126;52.672;13.622;2022-09-17T05:07:17;17.40;72.70
38325;DHT22;24126;52.672;13.622;2022-09-17T05:09:44;17.50;72.80
38325;DHT22;24126;52.672;13.622;2022-09-17T05:12:11;17.50;72.70
38325;DHT22;24126;52.672;13.622;2022-09-17T05:14:38;17.40;72.60
38325;DHT22;24126;52.672;13.622;2022-09-17T05:17:05;17.40;72.60
38325;DHT22;24126;52.672;13.622;2022-09-17T05:19:32;17.40;72.70
38325;DHT22;24126;52.672;13.622;2022-09-17T05:21:59;17.50;72.80
38325;DHT22;24126;52.672;13.622;2022-09-17T05:24:26;17.50;72.80
38325;DHT22;24126;52.672;13.622;2022-09-17T05:26:53;17.50;72.70
38325;DHT22;24126;52.672;13.622;2022-09-17T05:29:20;17.50;72.70
38325;DHT22;24126;52.672;13.622;2022-09-17T05:31:47;17.50;72.70
38325;DHT22;24126;52.672;13.622;2022-09-17T05:34:14;17.50;72.70
38325;DHT22;24126;52.672;13.622;2022-09-17T05:36:41;17.50;72.70
38325;DHT22;24126;52.672;13.622;2022-09-17T05:39:08;17.50;72.70
38325;DHT22;24126;52.672;13.622;2022-09-17T05:41:35;17.50;72.80
38325;DHT22;24126;52.672;13.622;2022-09-17T05:44:02;17.50;72.80
38325;DHT22;24126;52.672;13.622;2022-09-17T05:46:29;17.50;72.70
38325;DHT22;24126;52.672;13.622;2022-09-17T05:48:56;17.50;72.80
38325;DHT22;24126;52.672;13.622;2022-09-17T05:51:23;17.50;72.70
38325;DHT22;24126;52.672;13.622;2022-09-17T05:53:50;17.50;72.70
38325;DHT22;24126;52.672;13.622;2022-09-17T05:56:19;17.50;72.80
38325;DHT22;24126;52.672;13.622;2022-09-17T05:58:46;17.50;72.80
38325;DHT22;24126;52.672;13.622;2022-09-17T06:01:13;17.60;72.80
38325;DHT22;24126;52.672;13.622;2022-09-17T06:03:41;17.60;72.80
38325;DHT22;24126;52.672;13.622;2022-09-17T06:06:08;17.60;72.80
38325;DHT22;24126;52.672;13.622;2022-09-17T06:08:35;17.60;72.80
38325;DHT22;24126;52.672;13.622;2022-09-17T06:11:03;17.60;72.80
38325;DHT22;24126;52.672;13.622;2022-09-17T06:13:32;17.60;72.90
38325;DHT22;24126;52.672;13.622;2022-09-17T06:16:00;17.60;73.00
38325;DHT22;24126;52.672;13.622;2022-09-17T06:18:28;17.60;73.20
38325;DHT22;24126;52.672;13.622;2022-09-17T06:20:56;17.70;73.00
38325;DHT22;24126;52.672;13.622;2022-09-17T06:23:24;17.70;73.00
38325;DHT22;24126;52.672;13.622;2022-09-17T06:25:52;17.70;72.90
38325;DHT22;24126;52.672;13.622;2022-09-17T06:28:19;17.70;73.00
38325;DHT22;24126;52.672;13.622;2022-09-17T06:30:46;17.70;73.00
38325;DHT22;24126;52.672;13.622;2022-09-17T06:33:14;17.70;73.00
38325;DHT22;24126;52.672;13.622;2022-09-17T06:35:41;17.80;73.10
38325;DHT22;24126;52.672;13.622;2022-09-17T06:38:08;17.80;73.00
38325;DHT22;24126;52.672;13.622;2022-09-17T06:40:35;17.80;73.60
38325;DHT22;24126;52.672;13.622;2022-09-17T06:43:02;17.80;72.80
38325;DHT22;24126;52.672;13.622;2022-09-17T06:45:29;17.90;73.40
38325;DHT22;24126;52.672;13.622;2022-09-17T06:47:56;17.90;72.70
38325;DHT22;24126;52.672;13.622;2022-09-17T06:50:23;17.90;72.70
38325;DHT22;24126;52.672;13.622;2022-09-17T06:52:51;17.90;72.70
38325;DHT22;24126;52.672;13.622;2022-09-17T06:55:19;18.00;72.70
38325;DHT22;24126;52.672;13.622;2022-09-17T06:57:46;18.00;72.60
38325;DHT22;24126;52.672;13.622;2022-09-17T07:00:13;18.00;72.50
38325;DHT22;24126;52.672;13.622;2022-09-17T07:02:40;18.10;72.50
38325;DHT22;24126;52.672;13.622;2022-09-17T07:05:07;18.20;72.30
38325;DHT22;24126;52.672;13.622;2022-09-17T07:07:34;18.20;72.30
38325;DHT22;24126;52.672;13.622;2022-09-17T07:10:01;18.20;72.10
38325;DHT22;24126;52.672;13.622;2022-09-17T07:12:29;18.20;72.10
38325;DHT22;24126;52.672;13.622;2022-09-17T07:14:55;18.20;71.90
38325;DHT22;24126;52.672;13.622;2022-09-17T07:17:22;18.30;72.00
38325;DHT22;24126;52.672;13.622;2022-09-17T07:19:50;18.30;72.00
38325;DHT22;24126;52.672;13.622;2022-09-17T07:22:17;18.40;71.90
38325;DHT22;24126;52.672;13.622;2022-09-17T07:24:44;18.40;71.80
38325;DHT22;24126;52.672;13.622;2022-09-17T07:27:11;18.40;71.60
38325;DHT22;24126;52.672;13.622;2022-09-17T07:29:38;18.40;71.30
38325;DHT22;24126;52.672;13.622;2022-09-17T07:32:07;18.40;71.10
38325;DHT22;24126;52.672;13.622;2022-09-17T07:34:34;18.40;71.20
38325;DHT22;24126;52.672;13.622;2022-09-17T07:37:02;18.40;71.00
38325;DHT22;24126;52.672;13.622;2022-09-17T07:39:29;18.40;70.90
38325;DHT22;24126;52.672;13.622;2022-09-17T07:41:56;18.40;70.90
38325;DHT22;24126;52.672;13.622;2022-09-17T07:44:23;18.40;70.70
38325;DHT22;24126;52.672;13.622;2022-09-17T07:46:51;18.40;70.60
38325;DHT22;24126;52.672;13.622;2022-09-17T07:49:18;18.40;70.60
38325;DHT22;24126;52.672;13.622;2022-09-17T07:51:45;18.40;70.70
38325;DHT22;24126;52.672;13.622;2022-09-17T07:54:12;18.40;70.60
38325;DHT22;24126;52.672;13.622;2022-09-17T07:56:39;18.40;70.60
38325;DHT22;24126;52.672;13.622;2022-09-17T07:59:06;18.40;70.40
38325;DHT22;24126;52.672;13.622;2022-09-17T08:01:33;18.40;70.30
38325;DHT22;24126;52.672;13.622;2022-09-17T08:04:01;18.40;70.30
38325;DHT22;24126;52.672;13.622;2022-09-17T08:06:28;18.40;70.40
38325;DHT22;24126;52.672;13.622;2022-09-17T08:08:56;18.40;70.30
38325;DHT22;24126;52.672;13.622;2022-09-17T08:11:25;18.50;70.20
38325;DHT22;24126;52.672;13.622;2022-09-17T08:13:52;18.50;70.30
38325;DHT22;24126;52.672;13.622;2022-09-17T08:16:20;18.50;70.20
38325;DHT22;24126;52.672;13.622;2022-09-17T08:18:47;18.50;70.10
38325;DHT22;24126;52.672;13.622;2022-09-17T08:21:15;18.50;70.00
38325;DHT22;24126;52.672;13.622;2022-09-17T08:23:43;18.50;69.90
38325;DHT22;24126;52.672;13.622;2022-09-17T08:26:11;18.60;69.70
38325;DHT22;24126;52.672;13.622;2022-09-17T08:28:38;18.60;69.50
38325;DHT22;24126;52.672;13.622;2022-09-17T08:31:06;18.60;69.20
38325;DHT22;24126;52.672;13.622;2022-09-17T08:33:34;18.70;69.00
38325;DHT22;24126;52.672;13.622;2022-09-17T08:36:02;18.70;69.10
38325;DHT22;24126;52.672;13.622;2022-09-17T08:38:29;18.70;68.90
38325;DHT22;24126;52.672;13.622;2022-09-17T08:43:49;18.70;68.90
38325;DHT22;24126;52.672;13.622;2022-09-17T08:46:18;18.80;68.70
38325;DHT22;24126;52.672;13.622;2022-09-17T08:51:31;18.90;67.90
38325;DHT22;24126;52.672;13.622;2022-09-17T08:54:05;18.90;68.00
38325;DHT22;24126;52.672;13.622;2022-09-17T08:56:35;19.00;67.80
38325;DHT22;24126;52.672;13.622;2022-09-17T08:59:06;19.10;67.50
38325;DHT22;24126;52.672;13.622;2022-09-17T09:01:41;19.10;67.20
38325;DHT22;24126;52.672;13.622;2022-09-17T09:04:13;19.20;66.70
38325;DHT22;24126;52.672;13.622;2022-09-17T09:06:45;19.30;66.50
38325;DHT22;24126;52.672;13.622;2022-09-17T09:09:14;19.40;66.00
38325;DHT22;24126;52.672;13.622;2022-09-17T09:11:42;19.40;65.60
38325;DHT22;24126;52.672;13.622;2022-09-17T09:14:12;19.40;64.60
38325;DHT22;24126;52.672;13.622;2022-09-17T09:16:44;19.40;64.00
38325;DHT22;24126;52.672;13.622;2022-09-17T09:19:22;19.40;64.00
38325;DHT22;24126;52.672;13.622;2022-09-17T09:26:47;19.80;63.50
38325;DHT22;24126;52.672;13.622;2022-09-17T09:29:21;19.90;62.80
38325;DHT22;24126;52.672;13.622;2022-09-17T09:34:18;19.80;62.20
38325;DHT22;24126;52.672;13.622;2022-09-17T09:36:45;19.80;62.00
38325;DHT22;24126;52.672;13.622;2022-09-17T09:39:14;19.90;62.70
38325;DHT22;24126;52.672;13.622;2022-09-17T09:41:51;20.20;61.90
38325;DHT22;24126;52.672;13.622;2022-09-17T09:44:19;20.60;60.80
38325;DHT22;24126;52.672;13.622;2022-09-17T09:47:08;21.00;60.20
38325;DHT22;24126;52.672;13.622;2022-09-17T10:00:20;22.20;57.50
38325;DHT22;24126;52.672;13.622;2022-09-17T10:02:48;22.40;56.20
38325;DHT22;24126;52.672;13.622;2022-09-17T10:05:18;22.50;55.30
38325;DHT22;24126;52.672;13.622;2022-09-17T10:07:45;22.40;55.20
38325;DHT22;24126;52.672;13.622;2022-09-17T10:10:12;22.20;55.30
38325;DHT22;24126;52.672;13.622;2022-09-17T10:12:39;22.00;55.60
38325;DHT22;24126;52.672;13.622;2022-09-17T10:15:26;21.80;55.80
38325;DHT22;24126;52.672;13.622;2022-09-17T10:18:09;21.60;55.60
38325;DHT22;24126;52.672;13.622;2022-09-17T10:20:39;21.60;56.10
38325;DHT22;24126;52.672;13.622;2022-09-17T10:23:14;21.70;56.80
38325;DHT22;24126;52.672;13.622;2022-09-17T10:25:41;21.90;55.90
38325;DHT22;24126;52.672;13.622;2022-09-17T10:28:28;21.80;55.60
38325;DHT22;24126;52.672;13.622;2022-09-17T10:30:57;21.70;56.00
38325;DHT22;24126;52.672;13.622;2022-09-17T10:33:25;21.60;56.90
38325;DHT22;24126;52.672;13.622;2022-09-17T10:35:54;21.60;57.90
38325;DHT22;24126;52.672;13.622;2022-09-17T10:38:26;21.70;57.50
38325;DHT22;24126;52.672;13.622;2022-09-17T10:41:03;21.80;57.50
38325;DHT22;24126;52.672;13.622;2022-09-17T10:43:32;21.80;57.50
38325;DHT22;24126;52.672;13.622;2022-09-17T10:45:59;21.80;57.30
38325;DHT22;24126;52.672;13.622;2022-09-17T10:48:27;21.80;57.50
38325;DHT22;24126;52.672;13.622;2022-09-17T10:50:56;21.80;57.20
38325;DHT22;24126;52.672;13.622;2022-09-17T10:53:24;21.80;56.90
38325;DHT22;24126;52.672;13.622;2022-09-17T10:55:57;22.00;56.50
38325;DHT22;24126;52.672;13.622;2022-09-17T11:01:33;22.10;55.60
38325;DHT22;24126;52.672;13.622;2022-09-17T11:09:31;21.60;55.90
38325;DHT22;24126;52.672;13.622;2022-09-17T11:14:38;21.50;56.40
38325;DHT22;24126;52.672;13.622;2022-09-17T11:17:12;21.50;56.30
38325;DHT22;24126;52.672;13.622;2022-09-17T11:29:50;21.60;56.40
38325;DHT22;24126;52.672;13.622;2022-09-17T11:32:27;21.80;56.30
38325;DHT22;24126;52.672;13.622;2022-09-17T11:35:16;22.10;55.70
38325;DHT22;24126;52.672;13.622;2022-09-17T11:37:46;22.20;55.10
38325;DHT22;24126;52.672;13.622;2022-09-17T11:40:20;22.20;54.60
38325;DHT22;24126;52.672;13.622;2022-09-17T11:42:51;22.20;55.40
38325;DHT22;24126;52.672;13.622;2022-09-17T11:45:22;22.30;54.70
38325;DHT22;24126;52.672;13.622;2022-09-17T11:47:54;22.40;53.70
38325;DHT22;24126;52.672;13.622;2022-09-17T11:50:34;22.40;53.00
38325;DHT22;24126;52.672;13.622;2022-09-17T11:55:54;22.50;52.90
38325;DHT22;24126;52.672;13.622;2022-09-17T12:01:11;22.60;52.40
38325;DHT22;24126;52.672;13.622;2022-09-17T12:03:40;22.50;52.50
38325;DHT22;24126;52.672;13.622;2022-09-17T12:06:10;22.50;52.20
38325;DHT22;24126;52.672;13.622;2022-09-17T12:08:41;22.40;52.90
38325;DHT22;24126;52.672;13.622;2022-09-17T12:11:45;22.40;52.00
38325;DHT22;24126;52.672;13.622;2022-09-17T12:14:05;22.20;52.40
38325;DHT22;24126;52.672;13.622;2022-09-17T12:16:35;22.10;52.90
38325;DHT22;24126;52.672;13.622;2022-09-17T12:19:18;22.10;53.40
38325;DHT22;24126;52.672;13.622;2022-09-17T12:22:00;22.20;53.30
38325;DHT22;24126;52.672;13.622;2022-09-17T12:24:30;22.30;53.10
38325;DHT22;24126;52.672;13.622;2022-09-17T12:27:06;22.30;52.60
38325;DHT22;24126;52.672;13.622;2022-09-17T12:34:40;22.60;52.00
38325;DHT22;24126;52.672;13.622;2022-09-17T12:37:13;22.70;51.70
38325;DHT22;24126;52.672;13.622;2022-09-17T12:40:25;22.70;50.70
38325;DHT22;24126;52.672;13.622;2022-09-17T12:42:42;22.80;50.70
38325;DHT22;24126;52.672;13.622;2022-09-17T12:45:26;22.70;50.30
38325;DHT22;24126;52.672;13.622;2022-09-17T12:50:49;22.40;50.00
38325;DHT22;24126;52.672;13.622;2022-09-17T12:53:21;22.20;49.40
38325;DHT22;24126;52.672;13.622;2022-09-17T12:56:13;22.10;49.40
38325;DHT22;24126;52.672;13.622;2022-09-17T12:58:54;22.00;49.70
38325;DHT22;24126;52.672;13.622;2022-09-17T13:01:28;22.00;49.90
38325;DHT22;24126;52.672;13.622;2022-09-17T13:04:17;22.00;50.20
38325;DHT22;24126;52.672;13.622;2022-09-17T13:06:54;22.00;50.00
38325;DHT22;24126;52.672;13.622;2022-09-17T13:12:17;21.90;50.10
38325;DHT22;24126;52.672;13.622;2022-09-17T13:17:28;21.90;50.90
38325;DHT22;24126;52.672;13.622;2022-09-17T13:20:12;21.90;50.30
38325;DHT22;24126;52.672;13.622;2022-09-17T13:22:48;21.90;50.40
38325;DHT22;24126;52.672;13.622;2022-09-17T13:25:16;21.90;50.80
38325;DHT22;24126;52.672;13.622;2022-09-17T13:27:44;21.90;51.20
38325;DHT22;24126;52.672;13.622;2022-09-17T13:30:15;22.00;51.10
38325;DHT22;24126;52.672;13.622;2022-09-17T13:32:43;22.00;50.30
38325;DHT22;24126;52.672;13.622;2022-09-17T13:37:40;22.00;50.00
38325;DHT22;24126;52.672;13.622;2022-09-17T13:42:48;21.80;50.00
38325;DHT22;24126;52.672;13.622;2022-09-17T13:45:16;21.80;50.30
38325;DHT22;24126;52.672;13.622;2022-09-17T13:47:49;21.70;50.00
38325;DHT22;24126;52.672;13.622;2022-09-17T13:50:29;21.60;50.60
38325;DHT22;24126;52.672;13.622;2022-09-17T13:55:43;21.50;50.10
38325;DHT22;24126;52.672;13.622;2022-09-17T14:01:03;21.30;50.00
38325;DHT22;24126;52.672;13.622;2022-09-17T14:13:54;21.50;48.80
38325;DHT22;24126;52.672;13.622;2022-09-17T14:21:33;21.50;47.50
38325;DHT22;24126;52.672;13.622;2022-09-17T14:24:17;21.40;47.30
38325;DHT22;24126;52.672;13.622;2022-09-17T14:26:47;21.40;46.90
38325;DHT22;24126;52.672;13.622;2022-09-17T14:29:32;21.30;46.90
38325;DHT22;24126;52.672;13.622;2022-09-17T14:32:06;21.20;47.10
38325;DHT22;24126;52.672;13.622;2022-09-17T14:34:34;21.10;47.20
38325;DHT22;24126;52.672;13.622;2022-09-17T14:37:01;21.00;47.20
38325;DHT22;24126;52.672;13.622;2022-09-17T14:39:34;21.00;47.50
38325;DHT22;24126;52.672;13.622;2022-09-17T14:42:03;21.00;47.70
38325;DHT22;24126;52.672;13.622;2022-09-17T14:44:31;21.00;47.50
38325;DHT22;24126;52.672;13.622;2022-09-17T14:47:00;20.90;47.70
38325;DHT22;24126;52.672;13.622;2022-09-17T14:49:32;20.80;47.80
38325;DHT22;24126;52.672;13.622;2022-09-17T14:51:59;20.80;48.00
38325;DHT22;24126;52.672;13.622;2022-09-17T14:54:27;20.80;48.30
38325;DHT22;24126;52.672;13.622;2022-09-17T14:57:01;20.70;48.40
38325;DHT22;24126;52.672;13.622;2022-09-17T14:59:36;20.70;48.70
38325;DHT22;24126;52.672;13.622;2022-09-17T15:02:20;20.60;48.80
38325;DHT22;24126;52.672;13.622;2022-09-17T15:04:49;20.60;49.10
38325;DHT22;24126;52.672;13.622;2022-09-17T15:07:16;20.60;49.30
38325;DHT22;24126;52.672;13.622;2022-09-17T15:09:43;20.50;49.20
38325;DHT22;24126;52.672;13.622;2022-09-17T15:12:10;20.40;49.40
38325;DHT22;24126;52.672;13.622;2022-09-17T15:14:39;20.40;49.60
38325;DHT22;24126;52.672;13.622;2022-09-17T15:17:11;20.30;49.70
38325;DHT22;24126;52.672;13.622;2022-09-17T15:19:40;20.30;49.80
38325;DHT22;24126;52.672;13.622;2022-09-17T15:22:08;20.30;49.70
38325;DHT22;24126;52.672;13.622;2022-09-17T15:27:25;20.20;49.50
38325;DHT22;24126;52.672;13.622;2022-09-17T15:29:55;20.20;48.80
38325;DHT22;24126;52.672;13.622;2022-09-17T15:32:23;20.10;48.40
38325;DHT22;24126;52.672;13.622;2022-09-17T15:37:43;19.90;49.20
38325;DHT22;24126;52.672;13.622;2022-09-17T15:40:11;19.80;49.20
38325;DHT22;24126;52.672;13.622;2022-09-17T15:42:39;19.80;49.50
38325;DHT22;24126;52.672;13.622;2022-09-17T15:45:07;19.70;49.90
38325;DHT22;24126;52.672;13.622;2022-09-17T15:47:53;19.70;50.20
38325;DHT22;24126;52.672;13.622;2022-09-17T15:50:25;19.70;50.40
38325;DHT22;24126;52.672;13.622;2022-09-17T15:52:57;19.70;50.70
38325;DHT22;24126;52.672;13.622;2022-09-17T15:58:04;19.60;50.80
38325;DHT22;24126;52.672;13.622;2022-09-17T16:00:43;19.50;51.10
38325;DHT22;24126;52.672;13.622;2022-09-17T16:03:29;19.40;51.10
38325;DHT22;24126;52.672;13.622;2022-09-17T16:06:01;19.40;50.90
38325;DHT22;24126;52.672;13.622;2022-09-17T16:08:32;19.40;50.80
38325;DHT22;24126;52.672;13.622;2022-09-17T16:10:59;19.30;50.50
38325;DHT22;24126;52.672;13.622;2022-09-17T16:13:26;19.30;50.30
38325;DHT22;24126;52.672;13.622;2022-09-17T16:15:53;19.20;50.10
38325;DHT22;24126;52.672;13.622;2022-09-17T16:18:20;19.20;50.10
38325;DHT22;24126;52.672;13.622;2022-09-17T16:20:47;19.20;50.10
38325;DHT22;24126;52.672;13.622;2022-09-17T16:23:14;19.10;50.00
38325;DHT22;24126;52.672;13.622;2022-09-17T16:25:41;19.00;49.90
38325;DHT22;24126;52.672;13.622;2022-09-17T16:28:09;19.00;50.30
38325;DHT22;24126;52.672;13.622;2022-09-17T16:30:38;18.90;50.80
38325;DHT22;24126;52.672;13.622;2022-09-17T16:33:08;18.90;51.00
38325;DHT22;24126;52.672;13.622;2022-09-17T16:35:35;18.90;50.90
38325;DHT22;24126;52.672;13.622;2022-09-17T16:38:03;18.90;51.20
38325;DHT22;24126;52.672;13.622;2022-09-17T16:40:30;18.80;51.30
38325;DHT22;24126;52.672;13.622;2022-09-17T16:43:01;18.80;51.30
38325;DHT22;24126;52.672;13.622;2022-09-17T16:45:28;18.70;51.20
38325;DHT22;24126;52.672;13.622;2022-09-17T16:47:56;18.70;51.20
38325;DHT22;24126;52.672;13.622;2022-09-17T16:50:23;18.60;51.20
38325;DHT22;24126;52.672;13.622;2022-09-17T16:52:50;18.50;51.50
38325;DHT22;24126;52.672;13.622;2022-09-17T16:55:17;18.50;51.60
38325;DHT22;24126;52.672;13.622;2022-09-17T16:57:44;18.50;51.60
38325;DHT22;24126;52.672;13.622;2022-09-17T17:00:13;18.50;51.80
38325;DHT22;24126;52.672;13.622;2022-09-17T17:02:42;18.40;52.00
38325;DHT22;24126;52.672;13.622;2022-09-17T17:05:09;18.40;51.90
38325;DHT22;24126;52.672;13.622;2022-09-17T17:07:36;18.30;52.10
38325;DHT22;24126;52.672;13.622;2022-09-17T17:10:04;18.30;52.10
38325;DHT22;24126;52.672;13.622;2022-09-17T17:12:34;18.30;52.20
38325;DHT22;24126;52.672;13.622;2022-09-17T17:15:01;18.20;52.30
38325;DHT22;24126;52.672;13.622;2022-09-17T17:17:31;18.20;52.30
38325;DHT22;24126;52.672;13.622;2022-09-17T17:20:00;18.20;52.40
38325;DHT22;24126;52.672;13.622;2022-09-17T17:22:29;18.20;52.50
38325;DHT22;24126;52.672;13.622;2022-09-17T17:24:56;18.20;52.80
38325;DHT22;24126;52.672;13.622;2022-09-17T17:27:23;18.10;53.00
38325;DHT22;24126;52.672;13.622;2022-09-17T17:29:50;18.10;53.20
38325;DHT22;24126;52.672;13.622;2022-09-17T17:32:17;18.10;53.30